Terminal Aerodrome Forecast
Issued by NWS

Home | Current Version | Previous Version | Text Only | Print | Product List | Glossary On
Versions: 1 2 3 4 5 6 7 8 9 10 11 12 13
224
FTAK31 PAJN 231322 AAA
TAFAJN
TAF AMD
PAJN 231322Z 2313/2412 00000KT P6SM VCSH FEW005 BKN020 OVC040
     FM231600 VRB04KT P6SM SCT020 BKN040
     FM232000 24005KT P6SM FEW050
     FM240200 30004KT P6SM SCT070=

USA.gov is the U.S. government's official web portal to all federal, state and local government web resources and services.